sensor_id;sensor_type;location;lat;lon;timestamp;temperature;humidity
32296;DHT22;18781;51.550;5.418;2023-11-22T00:00:02;8.50;76.50
32296;DHT22;18781;51.550;5.418;2023-11-22T00:02:28;8.50;76.50
32296;DHT22;18781;51.550;5.418;2023-11-22T00:04:55;8.50;76.50
32296;DHT22;18781;51.550;5.418;2023-11-22T00:07:20;8.40;76.60
32296;DHT22;18781;51.550;5.418;2023-11-22T00:09:47;8.40;76.60
32296;DHT22;18781;51.550;5.418;2023-11-22T00:12:13;8.40;76.50
32296;DHT22;18781;51.550;5.418;2023-11-22T00:14:39;8.40;76.50
32296;DHT22;18781;51.550;5.418;2023-11-22T00:17:04;8.40;76.50
32296;DHT22;18781;51.550;5.418;2023-11-22T00:19:30;8.30;76.40
32296;DHT22;18781;51.550;5.418;2023-11-22T00:21:56;8.30;76.50
32296;DHT22;18781;51.550;5.418;2023-11-22T00:24:21;8.30;76.40
32296;DHT22;18781;51.550;5.418;2023-11-22T00:26:47;8.30;76.40
32296;DHT22;18781;51.550;5.418;2023-11-22T00:29:13;8.20;76.80
32296;DHT22;18781;51.550;5.418;2023-11-22T00:31:38;8.20;76.40
32296;DHT22;18781;51.550;5.418;2023-11-22T00:34:05;8.20;76.50
32296;DHT22;18781;51.550;5.418;2023-11-22T00:36:32;8.20;76.50
32296;DHT22;18781;51.550;5.418;2023-11-22T00:38:58;8.10;76.50
32296;DHT22;18781;51.550;5.418;2023-11-22T00:41:23;8.10;76.50
32296;DHT22;18781;51.550;5.418;2023-11-22T00:43:49;8.10;76.50
32296;DHT22;18781;51.550;5.418;2023-11-22T00:46:15;8.10;76.50
32296;DHT22;18781;51.550;5.418;2023-11-22T00:48:40;8.00;76.50
32296;DHT22;18781;51.550;5.418;2023-11-22T00:51:06;8.00;76.50
32296;DHT22;18781;51.550;5.418;2023-11-22T00:53:37;8.00;76.60
32296;DHT22;18781;51.550;5.418;2023-11-22T00:56:03;8.00;76.50
32296;DHT22;18781;51.550;5.418;2023-11-22T00:58:29;8.00;76.60
32296;DHT22;18781;51.550;5.418;2023-11-22T01:00:54;8.00;76.60
32296;DHT22;18781;51.550;5.418;2023-11-22T01:03:20;8.00;76.70
32296;DHT22;18781;51.550;5.418;2023-11-22T01:05:46;8.00;76.70
32296;DHT22;18781;51.550;5.418;2023-11-22T01:08:12;7.90;76.70
32296;DHT22;18781;51.550;5.418;2023-11-22T01:10:39;7.90;76.70
32296;DHT22;18781;51.550;5.418;2023-11-22T01:13:04;7.90;76.60
32296;DHT22;18781;51.550;5.418;2023-11-22T01:15:30;7.90;76.60
32296;DHT22;18781;51.550;5.418;2023-11-22T01:17:56;7.90;76.80
32296;DHT22;18781;51.550;5.418;2023-11-22T01:20:21;7.80;76.80
32296;DHT22;18781;51.550;5.418;2023-11-22T01:22:48;7.80;76.80
32296;DHT22;18781;51.550;5.418;2023-11-22T01:25:14;7.90;76.80
32296;DHT22;18781;51.550;5.418;2023-11-22T01:27:40;7.80;76.70
32296;DHT22;18781;51.550;5.418;2023-11-22T01:30:06;7.80;76.60
32296;DHT22;18781;51.550;5.418;2023-11-22T01:32:34;7.80;76.50
32296;DHT22;18781;51.550;5.418;2023-11-22T01:35:01;7.80;76.60
32296;DHT22;18781;51.550;5.418;2023-11-22T01:37:26;7.70;77.00
32296;DHT22;18781;51.550;5.418;2023-11-22T01:39:53;7.70;76.40
32296;DHT22;18781;51.550;5.418;2023-11-22T01:42:20;7.70;76.50
32296;DHT22;18781;51.550;5.418;2023-11-22T01:44:46;7.70;76.60
32296;DHT22;18781;51.550;5.418;2023-11-22T01:47:13;7.60;76.50
32296;DHT22;18781;51.550;5.418;2023-11-22T01:49:39;7.60;76.70
32296;DHT22;18781;51.550;5.418;2023-11-22T01:52:05;7.60;76.70
32296;DHT22;18781;51.550;5.418;2023-11-22T01:54:32;7.60;76.80
32296;DHT22;18781;51.550;5.418;2023-11-22T01:56:58;7.60;76.80
32296;DHT22;18781;51.550;5.418;2023-11-22T01:59:25;7.60;76.90
32296;DHT22;18781;51.550;5.418;2023-11-22T02:01:53;7.60;77.00
32296;DHT22;18781;51.550;5.418;2023-11-22T02:04:19;7.60;76.90
32296;DHT22;18781;51.550;5.418;2023-11-22T02:06:46;7.50;76.80
32296;DHT22;18781;51.550;5.418;2023-11-22T02:09:12;7.50;76.80
32296;DHT22;18781;51.550;5.418;2023-11-22T02:11:41;7.50;76.80
32296;DHT22;18781;51.550;5.418;2023-11-22T02:14:08;7.50;76.90
32296;DHT22;18781;51.550;5.418;2023-11-22T02:16:35;7.50;76.90
32296;DHT22;18781;51.550;5.418;2023-11-22T02:19:01;7.50;76.80
32296;DHT22;18781;51.550;5.418;2023-11-22T02:21:27;7.50;76.90
32296;DHT22;18781;51.550;5.418;2023-11-22T02:23:53;7.50;76.80
32296;DHT22;18781;51.550;5.418;2023-11-22T02:26:18;7.40;76.60
32296;DHT22;18781;51.550;5.418;2023-11-22T02:28:44;7.40;76.50
32296;DHT22;18781;51.550;5.418;2023-11-22T02:31:10;7.40;76.40
32296;DHT22;18781;51.550;5.418;2023-11-22T02:33:35;7.40;76.50
32296;DHT22;18781;51.550;5.418;2023-11-22T02:36:01;7.40;76.50
32296;DHT22;18781;51.550;5.418;2023-11-22T02:38:30;7.30;76.50
32296;DHT22;18781;51.550;5.418;2023-11-22T02:40:55;7.30;76.70
32296;DHT22;18781;51.550;5.418;2023-11-22T02:43:21;7.30;76.60
32296;DHT22;18781;51.550;5.418;2023-11-22T02:45:48;7.30;76.50
32296;DHT22;18781;51.550;5.418;2023-11-22T02:48:14;7.30;76.50
32296;DHT22;18781;51.550;5.418;2023-11-22T02:50:39;7.20;76.50
32296;DHT22;18781;51.550;5.418;2023-11-22T02:53:08;7.20;76.50
32296;DHT22;18781;51.550;5.418;2023-11-22T02:55:34;7.20;76.50
32296;DHT22;18781;51.550;5.418;2023-11-22T02:58:00;7.20;76.50
32296;DHT22;18781;51.550;5.418;2023-11-22T03:00:25;7.20;76.50
32296;DHT22;18781;51.550;5.418;2023-11-22T03:02:51;7.20;76.50
32296;DHT22;18781;51.550;5.418;2023-11-22T03:05:20;7.10;76.50
32296;DHT22;18781;51.550;5.418;2023-11-22T03:07:46;7.10;76.40
32296;DHT22;18781;51.550;5.418;2023-11-22T03:10:11;7.10;76.40
32296;DHT22;18781;51.550;5.418;2023-11-22T03:12:38;7.10;76.40
32296;DHT22;18781;51.550;5.418;2023-11-22T03:15:04;7.10;76.30
32296;DHT22;18781;51.550;5.418;2023-11-22T03:17:31;7.10;76.30
32296;DHT22;18781;51.550;5.418;2023-11-22T03:19:58;7.00;76.20
32296;DHT22;18781;51.550;5.418;2023-11-22T03:22:27;7.10;76.20
32296;DHT22;18781;51.550;5.418;2023-11-22T03:24:56;7.00;76.00
32296;DHT22;18781;51.550;5.418;2023-11-22T03:27:21;7.00;76.00
32296;DHT22;18781;51.550;5.418;2023-11-22T03:29:48;7.00;75.90
32296;DHT22;18781;51.550;5.418;2023-11-22T03:32:14;6.90;75.80
32296;DHT22;18781;51.550;5.418;2023-11-22T03:34:39;6.90;75.70
32296;DHT22;18781;51.550;5.418;2023-11-22T03:37:05;6.90;75.70
32296;DHT22;18781;51.550;5.418;2023-11-22T03:39:31;6.90;75.60
32296;DHT22;18781;51.550;5.418;2023-11-22T03:41:56;6.80;75.60
32296;DHT22;18781;51.550;5.418;2023-11-22T03:44:22;6.80;75.70
32296;DHT22;18781;51.550;5.418;2023-11-22T03:46:48;6.80;75.70
32296;DHT22;18781;51.550;5.418;2023-11-22T03:49:14;6.70;75.50
32296;DHT22;18781;51.550;5.418;2023-11-22T03:51:41;6.70;75.60
32296;DHT22;18781;51.550;5.418;2023-11-22T03:54:08;6.70;75.70
32296;DHT22;18781;51.550;5.418;2023-11-22T03:56:35;6.70;75.70
32296;DHT22;18781;51.550;5.418;2023-11-22T03:59:01;6.60;75.60
32296;DHT22;18781;51.550;5.418;2023-11-22T04:01:26;6.60;75.40
32296;DHT22;18781;51.550;5.418;2023-11-22T04:03:52;6.60;75.50
32296;DHT22;18781;51.550;5.418;2023-11-22T04:06:19;6.50;75.40
32296;DHT22;18781;51.550;5.418;2023-11-22T04:08:45;6.50;75.60
32296;DHT22;18781;51.550;5.418;2023-11-22T04:11:12;6.50;75.70
32296;DHT22;18781;51.550;5.418;2023-11-22T04:13:38;6.50;75.60
32296;DHT22;18781;51.550;5.418;2023-11-22T04:16:05;6.40;75.40
32296;DHT22;18781;51.550;5.418;2023-11-22T04:18:37;6.40;75.20
32296;DHT22;18781;51.550;5.418;2023-11-22T04:21:03;6.40;75.30
32296;DHT22;18781;51.550;5.418;2023-11-22T04:23:31;6.30;75.40
32296;DHT22;18781;51.550;5.418;2023-11-22T04:25:57;6.30;75.40
32296;DHT22;18781;51.550;5.418;2023-11-22T04:28:24;6.30;75.90
32296;DHT22;18781;51.550;5.418;2023-11-22T04:30:50;6.30;75.40
32296;DHT22;18781;51.550;5.418;2023-11-22T04:33:17;6.20;75.40
32296;DHT22;18781;51.550;5.418;2023-11-22T04:35:43;6.20;75.50
32296;DHT22;18781;51.550;5.418;2023-11-22T04:38:08;6.20;75.60
32296;DHT22;18781;51.550;5.418;2023-11-22T04:40:34;6.20;75.60
32296;DHT22;18781;51.550;5.418;2023-11-22T04:43:00;6.20;75.60
32296;DHT22;18781;51.550;5.418;2023-11-22T04:45:25;6.20;75.70
32296;DHT22;18781;51.550;5.418;2023-11-22T04:47:51;6.10;75.70
32296;DHT22;18781;51.550;5.418;2023-11-22T04:50:17;6.10;75.70
32296;DHT22;18781;51.550;5.418;2023-11-22T04:52:43;6.10;75.60
32296;DHT22;18781;51.550;5.418;2023-11-22T04:55:09;6.10;75.50
32296;DHT22;18781;51.550;5.418;2023-11-22T04:57:34;6.10;75.60
32296;DHT22;18781;51.550;5.418;2023-11-22T05:00:00;6.00;75.60
32296;DHT22;18781;51.550;5.418;2023-11-22T05:02:26;6.00;75.50
32296;DHT22;18781;51.550;5.418;2023-11-22T05:04:52;6.00;75.50
32296;DHT22;18781;51.550;5.418;2023-11-22T05:07:18;6.00;75.60
32296;DHT22;18781;51.550;5.418;2023-11-22T05:09:46;6.00;75.50
32296;DHT22;18781;51.550;5.418;2023-11-22T05:12:12;6.00;75.40
32296;DHT22;18781;51.550;5.418;2023-11-22T05:14:38;5.90;75.30
32296;DHT22;18781;51.550;5.418;2023-11-22T05:17:04;5.90;75.40
32296;DHT22;18781;51.550;5.418;2023-11-22T05:19:30;5.90;75.40
32296;DHT22;18781;51.550;5.418;2023-11-22T05:21:57;5.90;75.50
32296;DHT22;18781;51.550;5.418;2023-11-22T05:24:22;5.90;75.60
32296;DHT22;18781;51.550;5.418;2023-11-22T05:26:48;5.90;75.60
32296;DHT22;18781;51.550;5.418;2023-11-22T05:29:13;5.80;75.50
32296;DHT22;18781;51.550;5.418;2023-11-22T05:31:39;5.80;75.60
32296;DHT22;18781;51.550;5.418;2023-11-22T05:34:05;5.80;76.30
32296;DHT22;18781;51.550;5.418;2023-11-22T05:36:30;5.80;75.80
32296;DHT22;18781;51.550;5.418;2023-11-22T05:38:56;5.80;75.80
32296;DHT22;18781;51.550;5.418;2023-11-22T05:41:24;5.80;75.80
32296;DHT22;18781;51.550;5.418;2023-11-22T05:43:51;5.80;75.90
32296;DHT22;18781;51.550;5.418;2023-11-22T05:46:19;5.80;75.90
32296;DHT22;18781;51.550;5.418;2023-11-22T05:48:47;5.80;76.00
32296;DHT22;18781;51.550;5.418;2023-11-22T05:51:14;5.80;76.00
32296;DHT22;18781;51.550;5.418;2023-11-22T05:53:40;5.80;76.20
32296;DHT22;18781;51.550;5.418;2023-11-22T05:56:06;5.80;76.00
32296;DHT22;18781;51.550;5.418;2023-11-22T05:58:34;5.80;76.00
32296;DHT22;18781;51.550;5.418;2023-11-22T06:01:06;5.80;76.00
32296;DHT22;18781;51.550;5.418;2023-11-22T06:03:33;5.80;76.10
32296;DHT22;18781;51.550;5.418;2023-11-22T06:05:59;5.80;76.30
32296;DHT22;18781;51.550;5.418;2023-11-22T06:08:24;5.80;76.40
32296;DHT22;18781;51.550;5.418;2023-11-22T06:10:50;5.80;76.40
32296;DHT22;18781;51.550;5.418;2023-11-22T06:13:17;5.80;76.50
32296;DHT22;18781;51.550;5.418;2023-11-22T06:15:43;5.80;76.60
32296;DHT22;18781;51.550;5.418;2023-11-22T06:18:09;5.80;77.20
32296;DHT22;18781;51.550;5.418;2023-11-22T06:20:34;5.80;76.70
32296;DHT22;18781;51.550;5.418;2023-11-22T06:23:00;5.80;76.70
32296;DHT22;18781;51.550;5.418;2023-11-22T06:25:26;5.80;76.70
32296;DHT22;18781;51.550;5.418;2023-11-22T06:27:52;5.90;76.80
32296;DHT22;18781;51.550;5.418;2023-11-22T06:30:18;5.90;76.80
32296;DHT22;18781;51.550;5.418;2023-11-22T06:32:43;5.90;76.80
32296;DHT22;18781;51.550;5.418;2023-11-22T06:35:10;5.90;76.80
32296;DHT22;18781;51.550;5.418;2023-11-22T06:37:40;5.90;76.80
32296;DHT22;18781;51.550;5.418;2023-11-22T06:40:06;5.90;76.80
32296;DHT22;18781;51.550;5.418;2023-11-22T06:42:32;5.90;76.80
32296;DHT22;18781;51.550;5.418;2023-11-22T06:44:59;5.90;76.80
32296;DHT22;18781;51.550;5.418;2023-11-22T06:47:26;5.90;76.90
32296;DHT22;18781;51.550;5.418;2023-11-22T06:49:52;5.90;76.90
32296;DHT22;18781;51.550;5.418;2023-11-22T06:52:19;6.00;76.90
32296;DHT22;18781;51.550;5.418;2023-11-22T06:54:44;6.00;77.00
32296;DHT22;18781;51.550;5.418;2023-11-22T06:57:10;6.00;77.10
32296;DHT22;18781;51.550;5.418;2023-11-22T06:59:35;6.00;77.70
32296;DHT22;18781;51.550;5.418;2023-11-22T07:02:01;6.00;77.30
32296;DHT22;18781;51.550;5.418;2023-11-22T07:04:26;6.00;77.30
32296;DHT22;18781;51.550;5.418;2023-11-22T07:06:53;6.10;77.50
32296;DHT22;18781;51.550;5.418;2023-11-22T07:09:19;6.10;77.50
32296;DHT22;18781;51.550;5.418;2023-11-22T07:11:44;6.10;77.40
32296;DHT22;18781;51.550;5.418;2023-11-22T07:14:10;6.10;77.50
32296;DHT22;18781;51.550;5.418;2023-11-22T07:16:36;6.10;77.60
32296;DHT22;18781;51.550;5.418;2023-11-22T07:19:03;6.20;77.70
32296;DHT22;18781;51.550;5.418;2023-11-22T07:21:32;6.20;77.70
32296;DHT22;18781;51.550;5.418;2023-11-22T07:23:58;6.20;77.80
32296;DHT22;18781;51.550;5.418;2023-11-22T07:26:26;6.20;77.70
32296;DHT22;18781;51.550;5.418;2023-11-22T07:28:53;6.20;77.70
32296;DHT22;18781;51.550;5.418;2023-11-22T07:31:18;6.20;77.70
32296;DHT22;18781;51.550;5.418;2023-11-22T07:33:45;6.30;77.90
32296;DHT22;18781;51.550;5.418;2023-11-22T07:36:12;6.30;78.10
32296;DHT22;18781;51.550;5.418;2023-11-22T07:38:40;6.30;78.10
32296;DHT22;18781;51.550;5.418;2023-11-22T07:41:06;6.30;78.20
32296;DHT22;18781;51.550;5.418;2023-11-22T07:43:36;6.40;78.10
32296;DHT22;18781;51.550;5.418;2023-11-22T07:46:08;6.40;77.80
32296;DHT22;18781;51.550;5.418;2023-11-22T07:48:41;6.40;77.80
32296;DHT22;18781;51.550;5.418;2023-11-22T07:51:07;6.40;77.90
32296;DHT22;18781;51.550;5.418;2023-11-22T07:53:34;6.40;78.00
32296;DHT22;18781;51.550;5.418;2023-11-22T07:56:00;6.40;78.00
32296;DHT22;18781;51.550;5.418;2023-11-22T07:58:33;6.40;78.00
32296;DHT22;18781;51.550;5.418;2023-11-22T08:00:59;6.40;78.00
32296;DHT22;18781;51.550;5.418;2023-11-22T08:03:26;6.40;77.90
32296;DHT22;18781;51.550;5.418;2023-11-22T08:05:52;6.50;78.00
32296;DHT22;18781;51.550;5.418;2023-11-22T08:08:24;6.50;78.00
32296;DHT22;18781;51.550;5.418;2023-11-22T08:10:50;6.50;77.80
32296;DHT22;18781;51.550;5.418;2023-11-22T08:13:19;6.50;77.80
32296;DHT22;18781;51.550;5.418;2023-11-22T08:15:45;6.50;78.00
32296;DHT22;18781;51.550;5.418;2023-11-22T08:18:12;6.50;78.20
32296;DHT22;18781;51.550;5.418;2023-11-22T08:20:37;6.50;78.30
32296;DHT22;18781;51.550;5.418;2023-11-22T08:23:03;6.60;78.60
32296;DHT22;18781;51.550;5.418;2023-11-22T08:25:31;6.60;78.70
32296;DHT22;18781;51.550;5.418;2023-11-22T08:27:57;6.60;78.60
32296;DHT22;18781;51.550;5.418;2023-11-22T08:30:22;6.70;78.70
32296;DHT22;18781;51.550;5.418;2023-11-22T08:32:48;6.70;78.70
32296;DHT22;18781;51.550;5.418;2023-11-22T08:35:19;6.70;78.60
32296;DHT22;18781;51.550;5.418;2023-11-22T08:37:48;6.70;78.40
32296;DHT22;18781;51.550;5.418;2023-11-22T08:40:16;6.80;78.50
32296;DHT22;18781;51.550;5.418;2023-11-22T08:42:45;6.80;78.50
32296;DHT22;18781;51.550;5.418;2023-11-22T08:45:11;6.80;78.50
32296;DHT22;18781;51.550;5.418;2023-11-22T08:47:39;6.80;78.60
32296;DHT22;18781;51.550;5.418;2023-11-22T08:50:09;6.90;78.70
32296;DHT22;18781;51.550;5.418;2023-11-22T08:52:38;6.90;78.70
32296;DHT22;18781;51.550;5.418;2023-11-22T08:55:05;6.90;78.60
32296;DHT22;18781;51.550;5.418;2023-11-22T08:57:36;7.00;78.70
32296;DHT22;18781;51.550;5.418;2023-11-22T09:00:03;7.00;78.80
32296;DHT22;18781;51.550;5.418;2023-11-22T09:02:35;7.10;78.90
32296;DHT22;18781;51.550;5.418;2023-11-22T09:05:03;7.10;78.90
32296;DHT22;18781;51.550;5.418;2023-11-22T09:07:35;7.10;78.90
32296;DHT22;18781;51.550;5.418;2023-11-22T09:10:02;7.20;79.00
32296;DHT22;18781;51.550;5.418;2023-11-22T09:12:35;7.20;79.00
32296;DHT22;18781;51.550;5.418;2023-11-22T09:15:02;7.30;79.00
32296;DHT22;18781;51.550;5.418;2023-11-22T09:17:29;7.30;79.00
32296;DHT22;18781;51.550;5.418;2023-11-22T09:19:55;7.30;78.80
32296;DHT22;18781;51.550;5.418;2023-11-22T09:22:21;7.40;78.80
32296;DHT22;18781;51.550;5.418;2023-11-22T09:24:47;7.40;78.70
32296;DHT22;18781;51.550;5.418;2023-11-22T09:27:12;7.40;78.60
32296;DHT22;18781;51.550;5.418;2023-11-22T09:29:42;7.40;78.50
32296;DHT22;18781;51.550;5.418;2023-11-22T09:32:08;7.50;78.60
32296;DHT22;18781;51.550;5.418;2023-11-22T09:34:33;7.50;78.70
32296;DHT22;18781;51.550;5.418;2023-11-22T09:37:00;7.50;78.70
32296;DHT22;18781;51.550;5.418;2023-11-22T09:39:26;7.50;78.60
32296;DHT22;18781;51.550;5.418;2023-11-22T09:41:52;7.60;78.70
32296;DHT22;18781;51.550;5.418;2023-11-22T09:44:19;7.60;78.70
32296;DHT22;18781;51.550;5.418;2023-11-22T09:46:48;7.60;78.70
32296;DHT22;18781;51.550;5.418;2023-11-22T09:49:20;7.60;78.80
32296;DHT22;18781;51.550;5.418;2023-11-22T09:51:48;7.70;78.90
32296;DHT22;18781;51.550;5.418;2023-11-22T09:54:16;7.70;78.90
32296;DHT22;18781;51.550;5.418;2023-11-22T09:56:44;7.80;79.30
32296;DHT22;18781;51.550;5.418;2023-11-22T09:59:16;7.80;78.80
32296;DHT22;18781;51.550;5.418;2023-11-22T10:01:43;7.80;78.70
32296;DHT22;18781;51.550;5.418;2023-11-22T10:04:09;7.90;78.80
32296;DHT22;18781;51.550;5.418;2023-11-22T10:06:34;7.90;78.90
32296;DHT22;18781;51.550;5.418;2023-11-22T10:09:04;7.90;78.90
32296;DHT22;18781;51.550;5.418;2023-11-22T10:11:35;8.00;78.90
32296;DHT22;18781;51.550;5.418;2023-11-22T10:14:05;8.00;78.90
32296;DHT22;18781;51.550;5.418;2023-11-22T10:16:31;8.00;78.80
32296;DHT22;18781;51.550;5.418;2023-11-22T10:18:58;8.10;78.80
32296;DHT22;18781;51.550;5.418;2023-11-22T10:21:28;8.10;78.70
32296;DHT22;18781;51.550;5.418;2023-11-22T10:24:00;8.10;78.80
32296;DHT22;18781;51.550;5.418;2023-11-22T10:26:30;8.10;78.80
32296;DHT22;18781;51.550;5.418;2023-11-22T10:28:56;8.20;78.80
32296;DHT22;18781;51.550;5.418;2023-11-22T10:31:23;8.30;78.80
32296;DHT22;18781;51.550;5.418;2023-11-22T10:33:50;8.30;78.70
32296;DHT22;18781;51.550;5.418;2023-11-22T10:36:16;8.30;78.60
32296;DHT22;18781;51.550;5.418;2023-11-22T10:38:45;8.40;78.60
32296;DHT22;18781;51.550;5.418;2023-11-22T10:41:11;8.40;78.60
32296;DHT22;18781;51.550;5.418;2023-11-22T10:43:39;8.40;78.90
32296;DHT22;18781;51.550;5.418;2023-11-22T10:46:05;8.50;78.60
32296;DHT22;18781;51.550;5.418;2023-11-22T10:48:32;8.50;78.70
32296;DHT22;18781;51.550;5.418;2023-11-22T10:51:02;8.50;78.70
32296;DHT22;18781;51.550;5.418;2023-11-22T10:53:35;8.60;78.70
32296;DHT22;18781;51.550;5.418;2023-11-22T10:56:17;8.60;78.60
32296;DHT22;18781;51.550;5.418;2023-11-22T10:58:51;8.70;78.70
32296;DHT22;18781;51.550;5.418;2023-11-22T11:01:18;8.70;78.60
32296;DHT22;18781;51.550;5.418;2023-11-22T11:03:55;8.70;78.50
32296;DHT22;18781;51.550;5.418;2023-11-22T11:06:32;8.80;78.40
32296;DHT22;18781;51.550;5.418;2023-11-22T11:09:01;8.80;78.20
32296;DHT22;18781;51.550;5.418;2023-11-22T11:11:32;8.80;78.10
32296;DHT22;18781;51.550;5.418;2023-11-22T11:13:59;8.90;78.10
32296;DHT22;18781;51.550;5.418;2023-11-22T11:16:27;8.90;78.10
32296;DHT22;18781;51.550;5.418;2023-11-22T11:18:54;9.00;78.30
32296;DHT22;18781;51.550;5.418;2023-11-22T11:21:20;9.00;78.20
32296;DHT22;18781;51.550;5.418;2023-11-22T11:23:46;9.00;78.30
32296;DHT22;18781;51.550;5.418;2023-11-22T11:26:21;9.10;78.30
32296;DHT22;18781;51.550;5.418;2023-11-22T11:28:49;9.10;78.20
32296;DHT22;18781;51.550;5.418;2023-11-22T11:31:15;9.10;78.00
32296;DHT22;18781;51.550;5.418;2023-11-22T11:36:39;9.20;77.80
32296;DHT22;18781;51.550;5.418;2023-11-22T11:39:07;9.20;77.60
32296;DHT22;18781;51.550;5.418;2023-11-22T11:41:35;9.20;77.70
32296;DHT22;18781;51.550;5.418;2023-11-22T11:44:07;9.20;77.60
32296;DHT22;18781;51.550;5.418;2023-11-22T11:46:34;9.20;77.60
32296;DHT22;18781;51.550;5.418;2023-11-22T11:48:59;9.30;77.80
32296;DHT22;18781;51.550;5.418;2023-11-22T11:51:27;9.30;77.90
32296;DHT22;18781;51.550;5.418;2023-11-22T11:53:54;9.30;77.90
32296;DHT22;18781;51.550;5.418;2023-11-22T11:56:20;9.40;77.80
32296;DHT22;18781;51.550;5.418;2023-11-22T11:58:48;9.40;77.70
32296;DHT22;18781;51.550;5.418;2023-11-22T12:01:16;9.40;77.70
32296;DHT22;18781;51.550;5.418;2023-11-22T12:03:42;9.50;77.70
32296;DHT22;18781;51.550;5.418;2023-11-22T12:06:09;9.50;77.50
32296;DHT22;18781;51.550;5.418;2023-11-22T12:08:35;9.50;77.30
32296;DHT22;18781;51.550;5.418;2023-11-22T12:11:04;9.60;77.20
32296;DHT22;18781;51.550;5.418;2023-11-22T12:13:34;9.50;76.90
32296;DHT22;18781;51.550;5.418;2023-11-22T12:16:01;9.60;76.80
32296;DHT22;18781;51.550;5.418;2023-11-22T12:18:29;9.60;76.60
32296;DHT22;18781;51.550;5.418;2023-11-22T12:20:58;9.60;77.00
32296;DHT22;18781;51.550;5.418;2023-11-22T12:23:25;9.60;76.70
32296;DHT22;18781;51.550;5.418;2023-11-22T12:25:56;9.50;76.70
32296;DHT22;18781;51.550;5.418;2023-11-22T12:28:30;9.60;76.60
32296;DHT22;18781;51.550;5.418;2023-11-22T12:31:09;9.50;76.30
32296;DHT22;18781;51.550;5.418;2023-11-22T12:33:36;9.50;76.20
32296;DHT22;18781;51.550;5.418;2023-11-22T12:36:03;9.60;76.40
32296;DHT22;18781;51.550;5.418;2023-11-22T12:38:29;9.50;76.20
32296;DHT22;18781;51.550;5.418;2023-11-22T12:40:57;9.50;76.30
32296;DHT22;18781;51.550;5.418;2023-11-22T12:43:23;9.50;76.20
32296;DHT22;18781;51.550;5.418;2023-11-22T12:46:08;9.50;76.30
32296;DHT22;18781;51.550;5.418;2023-11-22T12:48:38;9.50;76.20
32296;DHT22;18781;51.550;5.418;2023-11-22T12:51:15;9.50;77.00
32296;DHT22;18781;51.550;5.418;2023-11-22T12:53:41;9.50;76.10
32296;DHT22;18781;51.550;5.418;2023-11-22T12:56:07;9.50;76.30
32296;DHT22;18781;51.550;5.418;2023-11-22T12:58:34;9.50;76.30
32296;DHT22;18781;51.550;5.418;2023-11-22T13:00:59;9.50;76.30
32296;DHT22;18781;51.550;5.418;2023-11-22T13:03:26;9.50;76.30
32296;DHT22;18781;51.550;5.418;2023-11-22T13:05:52;9.60;76.40
32296;DHT22;18781;51.550;5.418;2023-11-22T13:08:18;9.60;76.50
32296;DHT22;18781;51.550;5.418;2023-11-22T13:10:45;9.60;76.30
32296;DHT22;18781;51.550;5.418;2023-11-22T13:13:21;9.60;76.10
32296;DHT22;18781;51.550;5.418;2023-11-22T13:15:47;9.60;76.10
32296;DHT22;18781;51.550;5.418;2023-11-22T13:18:15;9.60;75.90
32296;DHT22;18781;51.550;5.418;2023-11-22T13:20:41;9.60;75.90
32296;DHT22;18781;51.550;5.418;2023-11-22T13:23:08;9.50;75.80
32296;DHT22;18781;51.550;5.418;2023-11-22T13:25:34;9.60;75.90
32296;DHT22;18781;51.550;5.418;2023-11-22T13:28:00;9.50;75.80
32296;DHT22;18781;51.550;5.418;2023-11-22T13:30:25;9.50;75.90
32296;DHT22;18781;51.550;5.418;2023-11-22T13:32:56;9.50;75.90
32296;DHT22;18781;51.550;5.418;2023-11-22T13:35:28;9.50;75.90
32296;DHT22;18781;51.550;5.418;2023-11-22T13:38:01;9.50;76.30
32296;DHT22;18781;51.550;5.418;2023-11-22T13:40:28;9.50;75.70
32296;DHT22;18781;51.550;5.418;2023-11-22T13:42:57;9.50;75.80
32296;DHT22;18781;51.550;5.418;2023-11-22T13:45:23;9.40;75.70
32296;DHT22;18781;51.550;5.418;2023-11-22T13:47:50;9.50;75.80
32296;DHT22;18781;51.550;5.418;2023-11-22T13:50:18;9.50;75.80
32296;DHT22;18781;51.550;5.418;2023-11-22T13:52:47;9.50;76.00
32296;DHT22;18781;51.550;5.418;2023-11-22T13:55:13;9.40;75.90
32296;DHT22;18781;51.550;5.418;2023-11-22T13:57:41;9.40;76.00
32296;DHT22;18781;51.550;5.418;2023-11-22T14:00:08;9.40;76.00
32296;DHT22;18781;51.550;5.418;2023-11-22T14:02:47;9.40;76.00
32296;DHT22;18781;51.550;5.418;2023-11-22T14:05:13;9.40;75.80
32296;DHT22;18781;51.550;5.418;2023-11-22T14:07:41;9.40;75.80
32296;DHT22;18781;51.550;5.418;2023-11-22T14:10:07;9.40;75.80
32296;DHT22;18781;51.550;5.418;2023-11-22T14:12:34;9.40;75.60
32296;DHT22;18781;51.550;5.418;2023-11-22T14:15:00;9.40;75.50
32296;DHT22;18781;51.550;5.418;2023-11-22T14:17:26;9.40;75.60
32296;DHT22;18781;51.550;5.418;2023-11-22T14:19:54;9.30;75.60
32296;DHT22;18781;51.550;5.418;2023-11-22T14:22:21;9.40;76.10
32296;DHT22;18781;51.550;5.418;2023-11-22T14:24:47;9.40;75.70
32296;DHT22;18781;51.550;5.418;2023-11-22T14:27:14;9.40;75.60
32296;DHT22;18781;51.550;5.418;2023-11-22T14:29:39;9.30;75.50
32296;DHT22;18781;51.550;5.418;2023-11-22T14:32:06;9.30;75.30
32296;DHT22;18781;51.550;5.418;2023-11-22T14:34:32;9.30;75.30
32296;DHT22;18781;51.550;5.418;2023-11-22T14:36:58;9.30;75.30
32296;DHT22;18781;51.550;5.418;2023-11-22T14:39:23;9.30;75.30
32296;DHT22;18781;51.550;5.418;2023-11-22T14:41:49;9.30;75.40
32296;DHT22;18781;51.550;5.418;2023-11-22T14:44:17;9.20;75.30
32296;DHT22;18781;51.550;5.418;2023-11-22T14:46:43;9.20;75.30
32296;DHT22;18781;51.550;5.418;2023-11-22T14:49:09;9.20;75.40
32296;DHT22;18781;51.550;5.418;2023-11-22T14:51:35;9.20;75.50
32296;DHT22;18781;51.550;5.418;2023-11-22T14:54:00;9.20;75.60
32296;DHT22;18781;51.550;5.418;2023-11-22T14:56:26;9.20;75.60
32296;DHT22;18781;51.550;5.418;2023-11-22T14:58:52;9.20;75.60
32296;DHT22;18781;51.550;5.418;2023-11-22T15:01:21;9.20;75.70
32296;DHT22;18781;51.550;5.418;2023-11-22T15:03:49;9.20;75.70
32296;DHT22;18781;51.550;5.418;2023-11-22T15:06:17;9.20;75.80
32296;DHT22;18781;51.550;5.418;2023-11-22T15:08:43;9.20;75.70
32296;DHT22;18781;51.550;5.418;2023-11-22T15:11:09;9.20;75.70
32296;DHT22;18781;51.550;5.418;2023-11-22T15:13:35;9.30;75.80
32296;DHT22;18781;51.550;5.418;2023-11-22T15:16:01;9.20;75.70
32296;DHT22;18781;51.550;5.418;2023-11-22T15:18:27;9.20;75.70
32296;DHT22;18781;51.550;5.418;2023-11-22T15:20:53;9.30;75.80
32296;DHT22;18781;51.550;5.418;2023-11-22T15:23:19;9.20;75.80
32296;DHT22;18781;51.550;5.418;2023-11-22T15:25:47;9.20;75.80
32296;DHT22;18781;51.550;5.418;2023-11-22T15:28:13;9.20;75.80
32296;DHT22;18781;51.550;5.418;2023-11-22T15:30:47;9.20;75.80
32296;DHT22;18781;51.550;5.418;2023-11-22T15:33:17;9.20;76.30
32296;DHT22;18781;51.550;5.418;2023-11-22T15:35:43;9.20;75.80
32296;DHT22;18781;51.550;5.418;2023-11-22T15:38:09;9.20;75.90
32296;DHT22;18781;51.550;5.418;2023-11-22T15:40:34;9.20;76.00
32296;DHT22;18781;51.550;5.418;2023-11-22T15:43:00;9.30;76.00
32296;DHT22;18781;51.550;5.418;2023-11-22T15:45:26;9.20;76.00